Time;durP1;ratioP1;P1;durP2;ratioP2;P2;SDS_P1;SDS_P2;PMS_P1;PMS_P2;Temp;Humidity;BMP_temperature;BMP_pressure;BME280_temperature;BME280_humidity;BME280_pressure;Samples;Min_cycle;Max_cycle;Signal;HPM_P1;HPM_P2
2022/11/15 00:01:34;;;;;;;5.20;3.97;;;;;;;17.25;62.88;96397.19;10437550;28;20448;-30
2022/11/15 00:06:53;;;;;;;4.97;3.22;;;;;;;17.19;62.91;96388.78;10433740;28;20439;-30
2022/11/15 00:12:12;;;;;;;4.95;3.40;;;;;;;17.19;63.06;96381.19;10440926;28;20041;-29
2022/11/15 00:17:31;;;;;;;4.22;3.60;;;;;;;17.18;63.12;96374.44;10436528;28;20041;-30
2022/11/15 00:22:49;;;;;;;4.18;3.75;;;;;;;17.19;63.17;96371.06;10432467;28;20041;-30
2022/11/15 00:28:08;;;;;;;6.03;3.65;;;;;;;17.22;62.86;96366.00;10435314;28;20033;-29
2022/11/15 00:33:28;;;;;;;4.90;3.42;;;;;;;17.19;63.16;96371.06;10433011;28;20465;-30
2022/11/15 00:38:47;;;;;;;4.53;3.53;;;;;;;17.23;62.88;96360.94;10437572;28;20037;-30
2022/11/15 00:44:06;;;;;;;6.05;3.38;;;;;;;17.17;63.00;96362.66;10433678;28;20033;-30
2022/11/15 00:49:24;;;;;;;4.65;3.33;;;;;;;17.20;63.13;96357.56;10432569;28;20425;-31
2022/11/15 00:54:43;;;;;;;4.38;3.15;;;;;;;17.22;63.05;96355.88;10433780;28;20049;-30
2022/11/15 01:00:03;;;;;;;4.15;3.20;;;;;;;17.19;63.23;96363.47;10433857;28;20044;-32
2022/11/15 01:05:22;;;;;;;4.90;3.58;;;;;;;17.17;62.79;96337.34;10436523;28;20507;-30
2022/11/15 01:10:41;;;;;;;4.55;3.90;;;;;;;17.33;62.69;96349.16;10434199;28;20503;-30
2022/11/15 01:16:16;;;;;;;4.72;3.40;;;;;;;17.26;63.09;96339.88;10428181;28;20041;-30
2022/11/15 01:21:35;;;;;;;7.93;3.83;;;;;;;17.21;63.14;96342.41;10431356;28;20517;-30
2022/11/15 01:26:54;;;;;;;5.95;3.30;;;;;;;17.15;63.07;96329.75;10435779;28;20072;-31
2022/11/15 01:32:13;;;;;;;3.58;3.03;;;;;;;17.22;63.29;96340.69;10432801;28;20037;-30
2022/11/15 01:37:32;;;;;;;4.30;2.95;;;;;;;17.16;63.39;96335.69;10435038;28;20378;-30
2022/11/15 01:42:51;;;;;;;4.75;3.17;;;;;;;17.08;63.11;96325.53;10431601;28;20519;-30
2022/11/15 01:48:11;;;;;;;5.70;3.00;;;;;;;17.20;63.22;96337.34;10426403;28;20037;-30
2022/11/15 01:53:33;;;;;;;4.30;2.95;;;;;;;17.20;63.31;96323.03;10431577;28;20037;-31
2022/11/15 01:58:55;;;;;;;5.70;3.08;;;;;;;17.20;63.31;96307.00;10437439;28;20123;-30
2022/11/15 02:04:23;;;;;;;4.47;2.92;;;;;;;17.18;63.26;96308.69;10433664;28;20112;-30
2022/11/15 02:09:43;;;;;;;3.45;2.88;;;;;;;17.20;63.24;96312.91;10423880;28;20033;-30
2022/11/15 02:15:04;;;;;;;2.97;2.75;;;;;;;17.17;63.42;96292.66;10433802;28;20072;-30
2022/11/15 02:20:43;;;;;;;4.70;3.00;;;;;;;17.29;63.00;96296.84;10432790;28;20037;-31
2022/11/15 02:26:02;;;;;;;3.95;3.05;;;;;;;17.34;63.03;96297.69;10435846;28;20462;-30
2022/11/15 02:31:51;;;;;;;3.45;2.65;;;;;;;17.33;62.79;96288.41;10439670;28;20040;-30
2022/11/15 02:37:41;;;;;;;5.30;2.90;;;;;;;17.20;63.31;96289.28;10438973;28;20124;-31
2022/11/15 02:48:47;;;;;;;2.88;2.65;;;;;;;17.14;63.60;96281.72;10427375;28;20037;-30
2022/11/15 02:54:10;;;;;;;3.90;2.50;;;;;;;17.19;63.44;96270.75;10437764;28;20049;-29
2022/11/15 02:59:52;;;;;;;5.80;3.13;;;;;;;17.17;63.58;96261.47;10443676;28;20037;-30
2022/11/15 03:05:14;;;;;;;3.38;2.45;;;;;;;17.20;63.14;96256.41;10436803;28;20041;-31
2022/11/15 03:10:52;;;;;;;3.92;2.25;;;;;;;17.21;63.28;96258.94;10435562;28;20123;-30
2022/11/15 03:16:10;;;;;;;;;;;;;;;17.20;63.50;96258.94;10435318;28;20037;-31
2022/11/15 03:21:32;;;;;;;3.83;3.17;;;;;;;17.22;63.24;96249.63;10436218;28;19912;-30
2022/11/15 03:26:54;;;;;;;3.05;2.72;;;;;;;17.20;63.52;96252.19;10439970;28;20033;-30
2022/11/15 03:32:20;;;;;;;3.45;3.10;;;;;;;17.16;63.59;96249.69;10431295;28;20037;-30
2022/11/15 03:38:06;;;;;;;3.10;2.15;;;;;;;17.30;63.23;96255.53;10441302;28;20041;-30
2022/11/15 03:43:47;;;;;;;4.63;3.50;;;;;;;17.33;63.20;96253.81;10434923;28;20060;-30
2022/11/15 03:49:13;;;;;;;5.30;3.13;;;;;;;17.27;63.43;96247.94;10429640;28;20061;-30
2022/11/15 03:54:33;;;;;;;6.93;4.72;;;;;;;17.21;63.63;96242.91;10437840;28;20080;-30
2022/11/15 03:59:51;;;;;;;3.58;2.60;;;;;;;17.19;63.64;96239.53;10434979;28;20041;-30
2022/11/15 04:05:10;;;;;;;2.50;2.30;;;;;;;17.24;63.34;96242.91;10440172;28;20033;-30
2022/11/15 04:10:29;;;;;;;4.55;2.60;;;;;;;17.22;63.34;96225.19;10435870;28;20041;-30
2022/11/15 04:15:48;;;;;;;4.13;2.40;;;;;;;17.20;63.41;96219.31;10437052;28;20037;-30
2022/11/15 04:26:46;;;;;;;2.85;2.63;;;;;;;17.21;63.66;96210.88;10436426;28;20045;-30
2022/11/15 04:32:06;;;;;;;3.70;2.40;;;;;;;17.21;63.32;96207.47;10428449;28;20123;-30
2022/11/15 04:37:25;;;;;;;2.35;2.15;;;;;;;17.20;63.73;96204.13;10437264;28;20426;-30
2022/11/15 04:42:45;;;;;;;4.45;2.30;;;;;;;17.24;63.29;96207.50;10432527;28;20411;-30
2022/11/15 04:48:04;;;;;;;2.80;2.42;;;;;;;17.29;63.22;96203.25;10428536;28;20033;-30
2022/11/15 04:53:23;;;;;;;3.10;2.10;;;;;;;17.37;62.96;96204.09;10435962;28;20037;-30
2022/11/15 04:58:42;;;;;;;3.22;2.05;;;;;;;17.40;62.82;96193.97;10434685;28;20487;-30
2022/11/15 05:04:19;;;;;;;3.80;2.22;;;;;;;17.44;62.73;96196.47;10429470;28;20491;-30
2022/11/15 05:09:38;;;;;;;3.35;1.90;;;;;;;17.38;63.01;96195.66;10433794;28;20041;-33
2022/11/15 05:14:57;;;;;;;4.13;2.50;;;;;;;17.36;62.92;96177.97;10433844;28;20041;-31
2022/11/15 05:20:16;;;;;;;1.80;1.70;;;;;;;17.36;63.10;96182.16;10432283;28;20052;-30
2022/11/15 05:25:36;;;;;;;4.32;2.10;;;;;;;17.28;63.73;96174.59;10436043;28;20524;-30
2022/11/15 05:31:28;;;;;;;7.30;2.00;;;;;;;17.40;62.95;96168.69;10429720;28;20065;-30
2022/11/15 05:36:47;;;;;;;2.22;1.90;;;;;;;17.40;63.03;96171.19;10428225;28;20045;-30
2022/11/15 05:42:12;;;;;;;5.60;1.95;;;;;;;17.40;62.89;96161.91;10432931;28;20044;-30
2022/11/15 05:47:33;;;;;;;6.57;2.80;;;;;;;17.42;62.95;96167.78;10427759;28;20033;-30
2022/11/15 05:52:53;;;;;;;9.93;2.08;;;;;;;17.35;63.39;96150.09;10423173;28;20455;-30
2022/11/15 05:58:12;;;;;;;5.95;2.58;;;;;;;17.31;63.60;96163.63;10433999;28;20037;-31
2022/11/15 06:03:31;;;;;;;4.95;2.10;;;;;;;17.36;63.15;96177.97;10439227;28;20036;-30
2022/11/15 06:08:50;;;;;;;12.98;2.50;;;;;;;17.39;63.34;96166.97;10441233;28;20511;-30
2022/11/15 06:14:09;;;;;;;9.05;2.70;;;;;;;17.45;63.40;96166.94;10436561;28;20077;-30
2022/11/15 06:19:32;;;;;;;20.65;3.17;;;;;;;17.43;63.30;96164.44;10441325;28;20037;-28
2022/11/15 06:24:51;;;;;;;5.63;2.35;;;;;;;17.36;63.81;96169.53;10445712;28;20503;-31
2022/11/15 06:30:10;;;;;;;7.90;3.15;;;;;;;17.38;63.19;96173.72;10435369;28;20064;-29
2022/11/15 06:35:30;;;;;;;9.32;2.78;;;;;;;17.30;62.27;96166.97;10435090;28;20079;-30
2022/11/15 06:40:49;;;;;;;4.05;2.55;;;;;;;17.28;62.91;96163.63;10434981;28;20029;-31
2022/11/15 06:46:08;;;;;;;11.30;3.25;;;;;;;17.25;63.24;96153.53;10439193;28;20032;-29
2022/11/15 06:51:27;;;;;;;14.00;3.30;;;;;;;17.28;63.40;96161.94;10440850;28;20041;-30
2022/11/15 06:56:46;;;;;;;2.92;2.00;;;;;;;17.28;63.44;96156.88;10439180;28;20080;-30
2022/11/15 07:02:05;;;;;;;5.65;2.10;;;;;;;17.26;63.57;96155.19;10433368;28;20412;-30
2022/11/15 07:07:24;;;;;;;3.08;2.25;;;;;;;17.27;63.40;96162.78;10438550;28;20029;-30
2022/11/15 07:12:47;;;;;;;8.32;2.00;;;;;;;17.29;63.59;96162.75;10444153;28;20663;-30
2022/11/15 07:18:05;;;;;;;5.82;2.38;;;;;;;17.26;63.62;96152.66;10438593;28;20041;-30
2022/11/15 07:23:24;;;;;;;7.88;2.00;;;;;;;17.32;63.37;96150.13;10435273;28;20278;-31
2022/11/15 07:28:43;;;;;;;4.05;2.22;;;;;;;17.38;63.27;96157.69;10438492;28;20303;-29
2022/11/15 07:34:02;;;;;;;7.18;4.32;;;;;;;17.37;63.38;96148.44;10434018;28;20120;-31
2022/11/15 07:39:21;;;;;;;2.85;1.92;;;;;;;17.31;63.59;96164.44;10440611;28;20046;-30
2022/11/15 07:44:40;;;;;;;3.97;2.42;;;;;;;17.28;63.61;96148.44;10432482;28;20041;-30
2022/11/15 07:49:59;;;;;;;2.70;1.63;;;;;;;17.25;63.49;96145.94;10434601;28;20124;-30
2022/11/15 07:55:18;;;;;;;3.30;2.00;;;;;;;17.26;63.64;96157.72;10434783;28;20040;-30
2022/11/15 08:00:37;;;;;;;4.90;2.17;;;;;;;17.20;63.48;96142.56;10431031;28;20471;-30
2022/11/15 08:05:56;;;;;;;3.78;2.05;;;;;;;17.27;63.55;96156.88;10434219;28;20037;-30
2022/11/15 08:11:15;;;;;;;2.10;1.90;;;;;;;17.26;63.40;96155.19;10438448;28;20040;-30
2022/11/15 08:16:34;;;;;;;2.88;1.90;;;;;;;17.19;63.61;96136.69;10432625;28;20064;-30
2022/11/15 08:21:53;;;;;;;3.95;2.15;;;;;;;17.26;63.61;96145.91;10432236;28;20503;-30
2022/11/15 08:27:15;;;;;;;2.53;2.10;;;;;;;17.26;63.79;96160.25;10439415;28;20516;-30
2022/11/15 08:32:34;;;;;;;3.05;2.10;;;;;;;17.25;63.71;96148.47;10434911;28;20041;-31
2022/11/15 08:37:53;;;;;;;3.13;1.83;;;;;;;17.25;63.66;96135.81;10440033;28;20032;-30
2022/11/15 08:43:12;;;;;;;4.47;1.92;;;;;;;17.34;63.59;96141.66;10436004;28;20060;-30
2022/11/15 08:48:31;;;;;;;1.90;1.70;;;;;;;17.37;63.38;96133.25;10430014;28;20049;-31
2022/11/15 08:53:50;;;;;;;3.17;2.00;;;;;;;17.32;63.36;96129.88;10435530;28;20510;-30
2022/11/15 08:59:09;;;;;;;2.70;1.90;;;;;;;17.25;63.48;96128.22;10430594;28;20033;-31
2022/11/15 09:04:28;;;;;;;3.92;1.80;;;;;;;17.29;63.62;96124.81;10433429;28;20037;-30
2022/11/15 09:09:47;;;;;;;2.95;1.73;;;;;;;17.28;63.55;96128.19;10425845;28;20041;-31
2022/11/15 09:15:06;;;;;;;2.88;1.52;;;;;;;17.26;63.66;96130.72;10435728;28;20491;-30
2022/11/15 09:20:25;;;;;;;1.92;1.60;;;;;;;17.24;63.51;96127.38;10431952;28;20041;-32
2022/11/15 09:25:44;;;;;;;3.55;1.45;;;;;;;17.26;63.94;96127.38;10429600;28;20033;-30
2022/11/15 09:31:05;;;;;;;1.98;1.58;;;;;;;17.23;63.75;96130.75;10427497;28;20037;-30
2022/11/15 09:36:24;;;;;;;3.13;2.10;;;;;;;17.25;63.90;96128.22;10439512;28;20041;-30
2022/11/15 09:41:55;;;;;;;1.85;1.60;;;;;;;17.25;63.54;96130.75;10444775;28;20116;-30
2022/11/15 09:48:04;;;;;;;1.73;1.63;;;;;;;17.27;63.66;96131.59;10440882;28;20037;-30
2022/11/15 09:53:52;;;;;;;2.70;1.60;;;;;;;17.27;63.55;96129.06;10442561;28;20125;-30
2022/11/15 09:59:13;;;;;;;2.35;1.98;;;;;;;17.38;63.45;96124.81;10435463;28;20558;-30
2022/11/15 10:04:14;;;;;;;2.17;1.60;;;;;;;17.39;63.74;96118.88;10445159;28;20029;-30
2022/11/15 10:09:47;;;;;;;2.55;1.60;;;;;;;17.34;63.46;96113.00;10439953;28;20044;-30
2022/11/15 10:14:50;;;;;;;2.67;1.50;;;;;;;17.31;63.54;96103.72;10436559;28;20065;-30
2022/11/15 10:20:01;;;;;;;1.73;1.60;;;;;;;17.32;63.51;96107.13;10435001;28;20033;-28
2022/11/15 10:25:08;;;;;;;1.55;1.42;;;;;;;17.24;63.58;96091.13;10443269;28;20148;-30
2022/11/15 10:30:17;;;;;;;1.95;1.30;;;;;;;17.30;63.61;96091.06;10437218;28;20119;-31
2022/11/15 10:35:24;;;;;;;2.53;1.50;;;;;;;17.31;63.57;96087.72;10434150;28;20407;-30
2022/11/15 10:40:24;;;;;;;2.25;1.75;;;;;;;17.28;63.69;96086.03;10439690;28;20487;-30
2022/11/15 10:45:31;;;;;;;1.80;1.70;;;;;;;17.29;63.85;96074.22;10433462;28;20047;-30
2022/11/15 10:50:32;;;;;;;1.73;1.50;;;;;;;17.28;63.79;96067.50;10438957;28;20465;-30
2022/11/15 10:55:33;;;;;;;2.45;1.48;;;;;;;17.28;63.71;96058.22;10437700;28;20052;-30
2022/11/15 11:00:41;;;;;;;2.17;1.60;;;;;;;17.27;63.61;96064.13;10431152;28;20400;-30
2022/11/15 11:05:42;;;;;;;1.90;1.42;;;;;;;17.27;63.75;96050.63;10437158;28;20092;-29
2022/11/15 11:10:56;;;;;;;1.40;1.27;;;;;;;17.31;63.41;96032.88;10435377;28;20035;-30
2022/11/15 11:16:14;;;;;;;4.95;2.13;;;;;;;17.40;63.34;96032.03;10437894;28;20065;-32
2022/11/15 11:21:26;;;;;;;1.42;1.33;;;;;;;17.45;63.30;96015.13;10433852;28;20518;-30
2022/11/15 11:26:40;;;;;;;1.30;1.20;;;;;;;17.41;63.12;96003.34;10402775;28;1078790;-30
2022/11/15 11:31:47;;;;;;;1.40;1.30;;;;;;;17.38;63.40;95998.28;10438407;28;20048;-30
2022/11/15 11:36:55;;;;;;;1.70;1.30;;;;;;;17.36;63.36;95983.16;10433783;28;20130;-30
2022/11/15 11:42:17;;;;;;;3.10;1.50;;;;;;;17.37;63.21;95977.22;10438919;28;20091;-31
2022/11/15 11:47:20;;;;;;;2.45;1.20;;;;;;;17.36;63.55;95965.44;10434261;28;20067;-31
2022/11/15 11:52:42;;;;;;;1.88;1.33;;;;;;;17.41;63.38;95967.94;10437665;28;20032;-31
2022/11/15 11:58:03;;;;;;;2.25;1.58;;;;;;;17.40;61.57;95956.97;10434118;28;20037;-30
2022/11/15 12:03:12;;;;;;;1.48;1.08;;;;;;;17.37;62.80;95951.06;10440545;28;20525;-30
2022/11/15 12:08:43;;;;;;;1.80;1.48;;;;;;;17.44;62.74;95933.31;10436073;28;20075;-29
2022/11/15 12:13:49;;;;;;;1.35;1.25;;;;;;;17.42;62.99;95924.06;10438094;28;20120;-30
2022/11/15 12:18:52;;;;;;;1.33;1.17;;;;;;;17.39;63.11;95912.28;10439544;28;20131;-32
2022/11/15 12:24:03;;;;;;;1.55;1.30;;;;;;;17.25;63.29;95887.91;10441283;28;20044;-29
2022/11/15 12:29:15;;;;;;;1.90;1.10;;;;;;;17.49;62.95;95905.44;10438273;28;20036;-30
2022/11/15 12:34:36;;;;;;;1.60;1.50;;;;;;;17.44;62.90;95886.94;10439654;28;20112;-30
2022/11/15 12:40:14;;;;;;;1.88;1.30;;;;;;;17.46;63.71;95882.69;10432790;28;20066;-32
2022/11/15 12:45:37;;;;;;;2.40;1.55;;;;;;;17.48;63.89;95875.94;10435944;28;20294;-30
2022/11/15 12:50:58;;;;;;;3.80;1.70;;;;;;;17.48;64.21;95869.16;10435741;28;20029;-31
2022/11/15 12:56:17;;;;;;;6.57;2.05;;;;;;;17.38;64.04;95869.25;10424871;28;20037;-31
2022/11/15 13:01:30;;;;;;;12.75;3.08;;;;;;;17.38;63.27;95876.84;10438580;28;20047;-31
2022/11/15 13:06:39;;;;;;;12.82;2.05;;;;;;;17.32;63.18;95846.53;10429058;28;20037;-30
2022/11/15 13:11:46;;;;;;;2.53;1.58;;;;;;;17.27;63.29;95840.69;10435112;28;20123;-30
2022/11/15 13:16:47;;;;;;;6.90;1.80;;;;;;;17.33;63.43;95843.97;10432860;28;20391;-30
2022/11/15 13:27:18;;;;;;;5.70;1.75;;;;;;;17.34;63.23;95819.53;10437552;28;20029;-30
2022/11/15 13:32:19;;;;;;;3.58;1.65;;;;;;;17.36;63.62;95820.38;10439791;28;20455;-31
2022/11/15 13:37:19;;;;;;;5.90;1.83;;;;;;;17.36;63.62;95813.63;10437475;28;20033;-31
2022/11/15 13:42:21;;;;;;;8.82;1.77;;;;;;;17.33;63.87;95805.22;10435394;28;20043;-31
2022/11/15 13:47:21;;;;;;;5.97;1.52;;;;;;;17.28;63.85;95790.06;10440091;28;20356;-30
2022/11/15 13:52:24;;;;;;;5.70;1.97;;;;;;;17.32;63.85;95794.25;10434928;28;20087;-30
2022/11/15 13:57:35;;;;;;;4.70;1.92;;;;;;;17.34;63.79;95790.00;10435153;28;20075;-30
2022/11/15 14:02:36;;;;;;;4.60;1.67;;;;;;;17.36;63.49;95778.22;10438019;28;20048;-30
2022/11/15 14:07:36;;;;;;;3.78;1.60;;;;;;;17.38;63.30;95770.59;10432927;28;20442;-30
2022/11/15 14:12:38;;;;;;;2.15;1.35;;;;;;;17.36;63.58;95767.25;10434723;28;20034;-31
2022/11/15 14:17:40;;;;;;;6.43;1.63;;;;;;;17.34;63.39;95758.81;10431414;28;20060;-30
2022/11/15 14:22:54;;;;;;;3.65;1.40;;;;;;;17.34;63.64;95751.22;10441127;28;20029;-30
2022/11/15 14:28:20;;;;;;;2.75;1.73;;;;;;;17.34;63.69;95739.41;10437695;28;20484;-31
2022/11/15 14:33:31;;;;;;;7.30;2.67;;;;;;;17.36;63.38;95724.25;10437015;28;20028;-30
2022/11/15 14:38:32;;;;;;;1.48;1.35;;;;;;;17.35;63.45;95718.34;10437046;28;20033;-30
2022/11/15 14:43:33;;;;;;;4.22;1.40;;;;;;;17.31;63.43;95703.22;10440838;28;20114;-30
2022/11/15 14:48:33;;;;;;;3.70;1.47;;;;;;;17.36;63.62;95709.06;10437978;28;20027;-31
2022/11/15 14:53:33;;;;;;;5.03;1.70;;;;;;;17.35;63.56;95703.16;10440604;28;20346;-30
2022/11/15 14:58:34;;;;;;;3.90;1.53;;;;;;;17.36;63.77;95701.47;10440206;28;20069;-30
2022/11/15 15:03:34;;;;;;;2.30;1.50;;;;;;;17.34;64.05;95698.09;10443647;28;20415;-30
2022/11/15 15:08:34;;;;;;;1.40;1.30;;;;;;;17.32;63.79;95684.66;10438361;28;20411;-29
2022/11/15 15:13:35;;;;;;;3.20;1.40;;;;;;;17.34;63.47;95677.88;10444445;28;20591;-30
2022/11/15 15:18:35;;;;;;;3.27;1.60;;;;;;;17.32;63.88;95675.34;10439698;28;20041;-30
2022/11/15 15:23:35;;;;;;;3.47;1.50;;;;;;;17.35;63.55;95674.47;10437070;28;20044;-30
2022/11/15 15:28:38;;;;;;;3.27;1.30;;;;;;;17.35;63.72;95669.41;10439277;28;20787;-30
2022/11/15 15:33:38;;;;;;;3.67;1.20;;;;;;;17.31;63.88;95653.44;10433714;28;20108;-29
2022/11/15 15:38:41;;;;;;;3.93;1.43;;;;;;;17.32;63.49;95651.75;10439814;28;20033;-30
2022/11/15 15:43:41;;;;;;;5.40;1.58;;;;;;;17.35;63.42;95639.06;10435296;28;20288;-30
2022/11/15 15:48:42;;;;;;;4.55;1.70;;;;;;;17.36;63.72;95630.66;10425071;28;20028;-30
2022/11/15 15:53:42;;;;;;;4.90;1.40;;;;;;;17.32;63.77;95623.94;10436738;28;20029;-28
2022/11/15 15:58:43;;;;;;;6.00;2.37;;;;;;;17.38;63.64;95621.34;10434418;28;20052;-30
2022/11/15 16:03:43;;;;;;;4.10;1.80;;;;;;;17.38;63.30;95627.25;10433404;28;20502;-30
2022/11/15 16:08:43;;;;;;;5.87;1.50;;;;;;;17.33;63.57;95615.50;10435552;28;20032;-31
2022/11/15 16:13:44;;;;;;;3.03;1.80;;;;;;;17.38;63.39;95618.81;10441673;28;20021;-30
2022/11/15 16:18:44;;;;;;;3.47;1.40;;;;;;;17.33;63.43;95608.72;10442817;28;20032;-30
2022/11/15 16:23:44;;;;;;;2.23;1.63;;;;;;;17.35;63.42;95601.13;10433874;28;20475;-30
2022/11/15 16:28:45;;;;;;;5.53;1.70;;;;;;;17.36;63.47;95605.34;10438116;28;20031;-31
2022/11/15 16:33:45;;;;;;;2.70;1.43;;;;;;;17.33;63.99;95592.72;10434120;28;20034;-30
2022/11/15 16:38:46;;;;;;;4.15;1.80;;;;;;;17.29;63.83;95580.94;10438960;28;20040;-31
2022/11/15 16:43:49;;;;;;;3.55;1.85;;;;;;;17.39;63.45;95601.09;10435850;28;20486;-31
2022/11/15 16:48:51;;;;;;;8.70;1.63;;;;;;;17.39;63.57;95605.28;10430367;28;20025;-29
2022/11/15 16:53:51;;;;;;;6.50;2.20;;;;;;;17.35;63.42;95593.53;10433461;28;20057;-31
2022/11/15 16:58:57;;;;;;;6.55;2.00;;;;;;;17.39;63.19;95593.50;10438344;28;20041;-30
2022/11/15 17:03:58;;;;;;;2.20;1.50;;;;;;;17.37;63.27;95581.72;10437031;28;20036;-30
2022/11/15 17:08:58;;;;;;;4.88;1.95;;;;;;;17.37;63.37;95581.72;10422549;28;20034;-31
2022/11/15 17:13:59;;;;;;;2.83;1.97;;;;;;;17.36;63.57;95580.91;10435203;28;20040;-30
2022/11/15 17:18:59;;;;;;;6.67;1.77;;;;;;;17.32;63.00;95578.41;10431411;28;20630;-31
2022/11/15 17:24:00;;;;;;;3.90;1.90;;;;;;;17.32;63.54;95570.81;10430584;28;20303;-30
2022/11/15 17:29:01;;;;;;;4.75;1.73;;;;;;;17.33;63.42;95570.78;10429283;28;20045;-31
2022/11/15 17:34:02;;;;;;;8.80;2.10;;;;;;;17.37;63.40;95567.38;10437245;28;21455;-32
2022/11/15 17:39:03;;;;;;;2.70;1.70;;;;;;;17.39;63.45;95575.78;10427681;28;20052;-31
2022/11/15 17:44:04;;;;;;;2.90;1.73;;;;;;;17.38;63.20;95558.94;10438850;28;20035;-30
2022/11/15 17:49:04;;;;;;;3.80;2.07;;;;;;;17.38;63.51;95563.16;10427443;28;20029;-31
2022/11/15 17:54:05;;;;;;;2.30;1.80;;;;;;;17.36;63.34;95557.28;10434705;28;20280;-30
2022/11/15 17:59:05;;;;;;;4.00;2.17;;;;;;;17.33;63.71;95549.72;10433394;28;20295;-31
2022/11/15 18:04:08;;;;;;;7.32;2.28;;;;;;;17.40;63.17;95548.81;10438296;28;20041;-32
2022/11/15 18:09:08;;;;;;;2.45;1.77;;;;;;;17.41;63.54;95537.81;10433355;28;20117;-30
2022/11/15 18:14:14;;;;;;;5.33;2.03;;;;;;;17.38;63.05;95537.84;10436356;28;20021;-30
2022/11/15 18:19:14;;;;;;;11.30;2.23;;;;;;;17.42;63.62;95552.16;10425629;28;20298;-31
2022/11/15 18:24:14;;;;;;;7.80;2.00;;;;;;;17.43;63.43;95551.28;10443438;28;20463;-31
2022/11/15 18:29:15;;;;;;;6.13;2.20;;;;;;;17.40;63.41;95541.22;10438648;28;20029;-30
2022/11/15 18:34:16;;;;;;;6.85;2.22;;;;;;;17.41;63.49;95532.78;10435432;28;20040;-30
2022/11/15 18:39:16;;;;;;;5.72;2.10;;;;;;;17.41;64.10;95538.66;10440671;28;20037;-30
2022/11/15 18:44:17;;;;;;;5.25;2.35;;;;;;;17.41;64.16;95540.34;10435169;28;20044;-30
2022/11/15 18:49:19;;;;;;;1.85;1.48;;;;;;;17.40;63.49;95521.81;10438125;28;20036;-30
2022/11/15 18:54:19;;;;;;;4.60;1.88;;;;;;;17.45;63.33;95521.72;10439960;28;20171;-30
2022/11/15 18:59:19;;;;;;;6.00;2.00;;;;;;;17.43;63.41;95506.59;10436753;28;20087;-31
2022/11/15 19:04:21;;;;;;;3.87;1.80;;;;;;;17.45;63.80;95509.09;10430011;28;20029;-29
2022/11/15 19:09:23;;;;;;;7.15;1.60;;;;;;;17.45;63.34;95499.81;10436654;28;20287;-31
2022/11/15 19:14:25;;;;;;;3.75;1.88;;;;;;;17.46;63.33;95496.41;10436679;28;20126;-30
2022/11/15 19:19:29;;;;;;;4.75;1.48;;;;;;;17.44;63.44;95487.16;10432248;28;20040;-31
2022/11/15 19:24:29;;;;;;;5.68;1.90;;;;;;;17.43;63.43;95482.97;10439200;28;20095;-30
2022/11/15 19:29:30;;;;;;;3.35;1.80;;;;;;;17.45;63.56;95481.25;10438687;28;20052;-30
2022/11/15 19:34:30;;;;;;;2.10;1.53;;;;;;;17.45;63.46;95483.78;10433954;28;20051;-30
2022/11/15 19:39:30;;;;;;;2.13;1.37;;;;;;;17.48;63.40;95481.22;10438424;28;20376;-30
2022/11/15 19:44:31;;;;;;;4.63;2.17;;;;;;;17.41;63.51;95469.53;10434606;28;20017;-30
2022/11/15 19:49:31;;;;;;;3.37;1.80;;;;;;;17.46;63.34;95478.72;10432739;28;20311;-30
2022/11/15 19:54:31;;;;;;;9.50;2.33;;;;;;;17.50;63.64;95476.97;10431858;28;20495;-30
2022/11/15 19:59:32;;;;;;;6.27;2.23;;;;;;;17.50;63.66;95476.97;10438107;28;20106;-30
2022/11/15 20:04:32;;;;;;;6.43;2.50;;;;;;;17.50;63.81;95472.72;10437092;28;20026;-31
2022/11/15 20:09:32;;;;;;;4.87;2.10;;;;;;;17.47;63.33;95464.34;10431622;28;20078;-30
2022/11/15 20:14:33;;;;;;;6.30;2.70;;;;;;;17.46;63.63;95472.78;10438549;28;20029;-30
2022/11/15 20:19:33;;;;;;;6.07;2.40;;;;;;;17.46;63.59;95467.72;10433451;28;20026;-31
2022/11/15 20:24:34;;;;;;;6.20;2.22;;;;;;;17.46;63.71;95471.13;10437972;28;20039;-31
2022/11/15 20:29:34;;;;;;;6.65;2.00;;;;;;;17.46;63.77;95462.69;10436025;28;20036;-30
2022/11/15 20:34:34;;;;;;;6.10;2.27;;;;;;;17.39;63.54;95443.38;10433113;28;20037;-29
2022/11/15 20:39:35;;;;;;;6.82;2.13;;;;;;;17.43;63.94;95450.09;10437416;28;20036;-30
2022/11/15 20:44:35;;;;;;;5.20;2.30;;;;;;;17.43;63.81;95450.09;10433292;28;20111;-30
2022/11/15 20:49:36;;;;;;;4.13;2.00;;;;;;;17.45;63.73;95453.41;10430749;28;20463;-31
2022/11/15 20:54:36;;;;;;;4.03;2.23;;;;;;;17.45;63.68;95453.41;10432036;28;20043;-30
2022/11/15 20:59:36;;;;;;;4.53;2.20;;;;;;;17.45;63.76;95449.22;10432330;28;20071;-30
2022/11/15 21:04:37;;;;;;;5.70;2.27;;;;;;;17.46;63.68;95461.00;10429211;28;20033;-30
2022/11/15 21:14:56;;;;;;;5.80;1.88;;;;;;;17.44;63.95;95447.53;10433788;28;20073;-30
2022/11/15 21:19:56;;;;;;;3.33;1.80;;;;;;;17.43;63.76;95450.94;10432092;28;20113;-31
2022/11/15 21:24:59;;;;;;;4.15;1.73;;;;;;;17.49;63.83;95455.06;10430255;28;20040;-31
2022/11/15 21:29:59;;;;;;;4.38;1.92;;;;;;;17.46;63.92;95460.16;10438297;28;20550;-30
2022/11/15 21:35:00;;;;;;;2.60;1.57;;;;;;;17.48;63.95;95448.34;10440891;28;20048;-30
2022/11/15 21:40:00;;;;;;;5.20;1.67;;;;;;;17.45;63.92;95449.22;10444678;28;20028;-30
2022/11/15 21:45:01;;;;;;;7.57;2.37;;;;;;;17.44;64.26;95446.69;10433231;28;20402;-30
2022/11/15 21:50:01;;;;;;;2.83;1.52;;;;;;;17.42;64.25;95428.19;10440606;28;20044;-29
2022/11/15 21:55:01;;;;;;;3.15;1.75;;;;;;;17.42;64.12;95444.19;10440459;28;20113;-30
2022/11/15 22:05:22;;;;;;;2.65;1.60;;;;;;;17.34;63.97;95429.97;10444897;28;20362;-28
2022/11/15 22:10:22;;;;;;;5.73;2.13;;;;;;;17.37;64.27;95430.78;10440701;28;20548;-30
2022/11/15 22:15:23;;;;;;;2.47;1.63;;;;;;;17.38;64.56;95431.59;10441555;28;20484;-31
2022/11/15 22:20:23;;;;;;;3.10;1.60;;;;;;;17.41;64.19;95423.97;10441219;28;20556;-30
2022/11/15 22:25:27;;;;;;;3.50;1.40;;;;;;;17.39;64.33;95418.94;10445743;28;20048;-32
2022/11/15 22:30:27;;;;;;;2.97;1.63;;;;;;;17.43;64.64;95412.13;10440805;28;20074;-31
2022/11/15 22:35:27;;;;;;;3.05;1.60;;;;;;;17.38;64.10;95399.56;10439255;28;20457;-31
2022/11/15 22:40:28;;;;;;;1.30;1.20;;;;;;;17.38;64.37;95403.78;10443488;28;20033;-31
2022/11/15 22:45:29;;;;;;;3.08;1.65;;;;;;;17.35;64.59;95386.09;10445178;28;20029;-30
2022/11/15 22:50:29;;;;;;;3.90;1.60;;;;;;;17.35;64.62;95381.03;10444766;28;20035;-30
2022/11/15 22:55:29;;;;;;;3.23;1.53;;;;;;;17.35;64.60;95386.09;10444596;28;20036;-30
2022/11/15 23:00:30;;;;;;;2.60;1.20;;;;;;;17.34;64.59;95374.31;10436296;28;20040;-30
2022/11/15 23:05:30;;;;;;;2.92;1.17;;;;;;;17.34;64.66;95371.78;10442345;28;20487;-30
2022/11/15 23:21:11;;;;;;;4.18;1.58;;;;;;;17.33;64.48;95380.25;10432727;28;20041;-30
2022/11/15 23:26:12;;;;;;;4.32;1.65;;;;;;;17.32;64.54;95378.56;10441355;28;20032;-30
2022/11/15 23:36:31;;;;;;;4.05;1.42;;;;;;;17.37;64.58;95365.03;10433563;28;20475;-30
2022/11/15 23:41:31;;;;;;;2.93;1.13;;;;;;;17.40;64.74;95377.59;10439600;28;20037;-31
2022/11/15 23:46:32;;;;;;;1.97;1.00;;;;;;;17.37;63.96;95380.19;10437117;28;20288;-30
2022/11/15 23:51:33;;;;;;;4.03;1.50;;;;;;;17.41;64.26;95391.09;10437791;28;20562;-31
2022/11/15 23:56:33;;;;;;;2.85;1.67;;;;;;;17.39;64.39;95382.69;10436102;28;20091;-31
